Time;durP1;ratioP1;P1;durP2;ratioP2;P2;SDS_P1;SDS_P2;PMS_P1;PMS_P2;Temp;Humidity;BMP_temperature;BMP_pressure;BME280_temperature;BME280_humidity;BME280_pressure;Samples;Min_cycle;Max_cycle;Signal;HPM_P1;HPM_P2
2023/07/05 00:01:47;;;;;;;4.35;1.12;;;23.10;63.50;;;;;;2281369;55;21535;-70
2023/07/05 00:04:13;;;;;;;2.03;0.80;;;23.10;64.10;;;;;;2515652;55;21002;-70
2023/07/05 00:06:40;;;;;;;1.92;0.90;;;23.00;64.10;;;;;;2520100;54;21425;-68
2023/07/05 00:09:08;;;;;;;3.05;1.10;;;23.00;64.30;;;;;;2285999;55;20968;-68
2023/07/05 00:11:34;;;;;;;2.30;1.00;;;23.00;64.50;;;;;;2507049;54;21585;-69
2023/07/05 00:14:01;;;;;;;2.35;1.00;;;23.10;64.70;;;;;;2477233;55;21562;-72
2023/07/05 00:16:48;;;;;;;1.65;0.75;;;23.00;64.70;;;;;;2505083;55;21090;-69
2023/07/05 00:19:29;;;;;;;2.10;0.80;;;23.00;64.10;;;;;;2513941;55;20954;-68
2023/07/05 00:22:02;;;;;;;2.40;1.10;;;23.00;64.20;;;;;;2510654;55;21972;-69
2023/07/05 00:24:28;;;;;;;1.73;0.75;;;23.10;64.70;;;;;;2513762;55;20959;-71
2023/07/05 00:26:55;;;;;;;2.20;0.85;;;23.00;64.90;;;;;;2281574;56;20919;-71
2023/07/05 00:29:21;;;;;;;1.83;0.80;;;23.10;65.10;;;;;;2507093;55;20958;-71
2023/07/05 00:31:48;;;;;;;2.45;0.95;;;23.00;65.10;;;;;;2515086;55;21137;-68
2023/07/05 00:34:14;;;;;;;2.40;0.82;;;23.10;65.40;;;;;;2282166;56;21479;-69
2023/07/05 00:36:42;;;;;;;2.53;0.80;;;23.10;65.50;;;;;;2282370;56;20990;-69
2023/07/05 00:39:08;;;;;;;1.87;0.60;;;23.10;65.60;;;;;;2515535;54;20982;-67
2023/07/05 00:41:35;;;;;;;1.92;0.90;;;23.10;65.70;;;;;;2515572;54;20930;-69
2023/07/05 00:44:17;;;;;;;2.40;0.93;;;23.10;65.80;;;;;;2274963;56;20985;-69
2023/07/05 00:46:46;;;;;;;2.40;1.03;;;23.20;65.30;;;;;;2510631;54;20983;-70
2023/07/05 00:49:17;;;;;;;2.83;1.12;;;23.10;65.80;;;;;;2270484;56;21867;-71
2023/07/05 00:51:52;;;;;;;2.20;0.80;;;23.10;65.80;;;;;;2479504;55;21555;-69
2023/07/05 00:54:25;;;;;;;1.58;0.77;;;23.20;65.80;;;;;;2513198;55;20954;-71
2023/07/05 00:57:40;;;;;;;2.08;0.90;;;23.10;66.00;;;;;;2282189;55;21071;-68
2023/07/05 01:00:09;;;;;;;2.58;0.80;;;23.20;65.90;;;;;;2282034;56;21002;-69
2023/07/05 01:02:40;;;;;;;2.42;0.98;;;23.10;66.10;;;;;;2520128;54;20951;-69
2023/07/05 01:05:18;;;;;;;2.15;1.00;;;23.10;65.80;;;;;;2308364;55;20972;-70
2023/07/05 01:07:46;;;;;;;3.47;0.80;;;23.10;66.10;;;;;;2285090;54;20987;-68
2023/07/05 01:10:18;;;;;;;2.17;0.98;;;23.10;65.90;;;;;;2271864;56;20938;-70
2023/07/05 01:13:05;;;;;;;2.28;0.90;;;23.10;65.80;;;;;;2298283;55;21005;-68
2023/07/05 01:16:02;;;;;;;1.85;0.77;;;23.10;65.50;;;;;;2531972;54;21010;-69
2023/07/05 01:18:35;;;;;;;2.15;0.77;;;23.00;65.90;;;;;;2510467;55;21008;-69
2023/07/05 01:21:11;;;;;;;2.20;0.70;;;23.10;66.10;;;;;;2515296;55;21010;-68
2023/07/05 01:25:23;;;;;;;1.70;0.88;;;23.00;66.10;;;;;;2513509;55;20953;-70
2023/07/05 01:28:41;;;;;;;2.15;0.90;;;23.00;65.60;;;;;;2284939;54;20936;-69
2023/07/05 01:31:44;;;;;;;2.45;0.98;;;23.00;66.20;;;;;;2535404;54;20923;-69
2023/07/05 01:37:51;;;;;;;2.15;0.80;;;23.00;65.80;;;;;;2542373;54;20941;-68
2023/07/05 01:41:39;;;;;;;1.27;0.55;;;23.00;65.50;;;;;;2285772;56;20938;-71
2023/07/05 01:44:08;;;;;;;1.58;0.70;;;23.00;65.60;;;;;;2515088;55;21018;-69
2023/07/05 01:46:54;;;;;;;2.08;0.80;;;22.90;66.70;;;;;;2515148;55;21010;-69
2023/07/05 01:56:12;;;;;;;1.33;0.73;;;23.00;66.70;;;;;;2281049;56;21033;-68
2023/07/05 01:58:42;;;;;;;1.95;0.55;;;22.90;65.70;;;;;;2515570;55;20950;-69
2023/07/05 02:01:16;;;;;;;1.42;0.70;;;22.90;66.80;;;;;;2282456;56;20958;-69
2023/07/05 02:03:43;;;;;;;2.00;0.75;;;22.90;66.70;;;;;;2502674;54;21088;-71
2023/07/05 02:06:09;;;;;;;2.60;0.90;;;22.90;67.10;;;;;;2293675;55;20932;-68
2023/07/05 02:08:37;;;;;;;1.77;0.80;;;22.90;67.10;;;;;;2308144;55;21460;-67
2023/07/05 02:11:04;;;;;;;1.90;0.80;;;22.80;67.10;;;;;;2307925;55;20992;-71
2023/07/05 02:13:30;;;;;;;2.10;0.80;;;22.80;67.10;;;;;;2524083;54;20939;-68
2023/07/05 02:15:57;;;;;;;1.50;0.65;;;22.80;67.10;;;;;;2514967;55;21270;-69
2023/07/05 02:18:23;;;;;;;1.90;0.80;;;22.90;67.20;;;;;;2282511;56;21059;-68
2023/07/05 02:20:50;;;;;;;1.85;0.75;;;22.80;67.10;;;;;;2515682;55;20963;-69
2023/07/05 02:23:19;;;;;;;2.50;0.90;;;22.80;67.10;;;;;;2515636;55;21423;-68
2023/07/05 02:26:05;;;;;;;2.42;0.90;;;22.80;67.10;;;;;;2272727;55;20998;-69
2023/07/05 02:28:32;;;;;;;2.33;0.80;;;22.80;66.20;;;;;;2281376;55;20925;-68
2023/07/05 02:31:03;;;;;;;2.37;1.00;;;22.80;67.00;;;;;;2280514;55;20961;-66
2023/07/05 02:33:29;;;;;;;1.45;0.70;;;22.80;66.90;;;;;;2283399;55;20974;-68
2023/07/05 02:36:12;;;;;;;2.00;0.90;;;22.90;67.20;;;;;;2514967;55;22189;-68
2023/07/05 02:38:43;;;;;;;2.00;0.90;;;22.80;66.40;;;;;;2282601;55;21005;-68
2023/07/05 02:41:19;;;;;;;2.33;1.05;;;22.90;67.20;;;;;;2282951;55;20998;-67
2023/07/05 02:44:22;;;;;;;2.58;1.17;;;22.90;66.80;;;;;;2282159;55;20998;-66
2023/07/05 02:46:57;;;;;;;2.17;1.00;;;22.90;66.40;;;;;;2497962;55;20963;-73
2023/07/05 02:49:23;;;;;;;1.90;0.80;;;22.90;66.80;;;;;;2508014;55;21545;-68
2023/07/05 02:51:50;;;;;;;1.98;0.65;;;22.90;67.30;;;;;;2281262;55;20962;-68
2023/07/05 02:54:16;;;;;;;2.45;1.00;;;22.90;67.30;;;;;;2534185;54;20956;-66
2023/07/05 02:56:43;;;;;;;2.87;0.82;;;22.90;67.30;;;;;;2547399;54;20940;-70
2023/07/05 02:59:09;;;;;;;2.65;1.00;;;22.90;67.30;;;;;;2510499;54;21000;-70
2023/07/05 03:01:35;;;;;;;2.58;1.00;;;22.90;67.30;;;;;;2506658;54;21649;-68
2023/07/05 03:04:02;;;;;;;2.87;0.93;;;22.90;67.20;;;;;;2302368;55;20952;-66
2023/07/05 03:06:28;;;;;;;1.87;0.82;;;22.90;67.20;;;;;;2526089;54;20956;-67
2023/07/05 03:09:04;;;;;;;2.33;1.15;;;22.90;67.20;;;;;;2480819;55;20920;-70
2023/07/05 03:11:30;;;;;;;3.20;1.12;;;23.00;66.80;;;;;;2529118;54;20988;-67
2023/07/05 03:13:59;;;;;;;3.05;1.10;;;22.90;67.10;;;;;;2530261;54;21000;-68
2023/07/05 03:16:28;;;;;;;2.20;0.90;;;22.90;67.10;;;;;;2262185;55;21046;-69
2023/07/05 03:18:56;;;;;;;3.85;1.33;;;22.90;67.10;;;;;;2514309;55;22215;-69
2023/07/05 03:21:22;;;;;;;2.58;1.00;;;22.90;67.20;;;;;;2283436;55;21842;-67
2023/07/05 03:23:49;;;;;;;2.05;1.00;;;22.90;67.20;;;;;;2273758;56;20957;-67
2023/07/05 03:26:15;;;;;;;2.92;1.10;;;22.90;67.20;;;;;;2282540;56;20942;-67
2023/07/05 03:28:41;;;;;;;2.25;0.98;;;22.90;67.10;;;;;;2282439;56;21437;-68
2023/07/05 03:31:10;;;;;;;1.90;0.90;;;22.90;67.10;;;;;;2278579;56;21062;-68
2023/07/05 03:33:38;;;;;;;2.58;1.17;;;22.90;67.10;;;;;;2544873;54;21752;-67
2023/07/05 03:36:20;;;;;;;2.50;1.20;;;22.90;67.20;;;;;;2547626;54;20932;-71
2023/07/05 03:38:48;;;;;;;2.40;0.90;;;22.90;66.40;;;;;;2282460;55;21372;-67
2023/07/05 03:41:16;;;;;;;2.40;1.15;;;22.90;67.10;;;;;;2282389;55;21022;-67
2023/07/05 03:43:45;;;;;;;2.55;1.30;;;22.90;67.10;;;;;;2281214;55;21586;-69
2023/07/05 03:46:30;;;;;;;2.40;1.10;;;22.90;67.20;;;;;;2279386;55;20954;-68
2023/07/05 03:49:11;;;;;;;3.00;1.10;;;22.90;66.40;;;;;;2509983;55;20978;-72
2023/07/05 03:51:38;;;;;;;2.70;1.17;;;22.90;66.40;;;;;;2514727;55;21050;-68
2023/07/05 03:54:04;;;;;;;2.20;0.93;;;22.90;67.20;;;;;;2515615;55;20962;-68
2023/07/05 03:56:31;;;;;;;2.60;0.95;;;22.90;67.20;;;;;;2282279;55;21575;-69
2023/07/05 03:58:59;;;;;;;3.67;0.90;;;22.90;67.20;;;;;;2515505;55;20995;-69
2023/07/05 04:04:17;;;;;;;3.90;1.48;;;22.90;67.20;;;;;;2546513;52;141458;-82
2023/07/05 04:06:51;;;;;;;2.08;0.98;;;22.90;67.20;;;;;;2472177;54;21103;-85
2023/07/05 04:09:21;;;;;;;3.33;1.23;;;23.00;67.30;;;;;;2520216;54;20951;-89
2023/07/05 04:11:47;;;;;;;2.30;1.10;;;23.00;67.30;;;;;;2509427;54;20982;-87
2023/07/05 04:14:13;;;;;;;2.92;1.17;;;23.00;67.30;;;;;;2492534;54;21000;-83
2023/07/05 04:16:40;;;;;;;4.47;1.30;;;23.00;67.20;;;;;;2491579;55;21057;-87
2023/07/05 04:19:08;;;;;;;2.30;0.93;;;23.00;67.30;;;;;;2491582;55;20972;-86
2023/07/05 04:21:34;;;;;;;2.80;1.37;;;23.00;67.30;;;;;;2491172;55;20948;-84
2023/07/05 04:24:01;;;;;;;3.28;1.10;;;23.00;67.30;;;;;;2491020;55;20991;-84
2023/07/05 04:26:28;;;;;;;2.65;1.12;;;23.00;67.20;;;;;;2491128;55;21576;-87
2023/07/05 04:28:55;;;;;;;2.75;1.10;;;23.00;67.20;;;;;;2491859;55;21728;-88
2023/07/05 04:31:27;;;;;;;2.85;1.20;;;23.00;67.10;;;;;;2516283;54;21114;-88
2023/07/05 04:33:54;;;;;;;2.37;0.95;;;23.00;67.10;;;;;;2493985;54;20959;-86
2023/07/05 04:36:20;;;;;;;3.50;1.10;;;23.00;67.00;;;;;;2492876;55;22192;-86
2023/07/05 04:38:51;;;;;;;2.67;1.40;;;23.00;67.00;;;;;;2499153;54;21010;-84
2023/07/05 04:41:17;;;;;;;4.05;1.25;;;23.00;67.00;;;;;;2512814;54;21489;-86
2023/07/05 04:43:44;;;;;;;2.40;1.10;;;23.10;67.10;;;;;;2492344;54;21004;-90
2023/07/05 04:46:10;;;;;;;2.58;1.17;;;23.00;67.00;;;;;;2489773;54;21035;-85
2023/07/05 04:48:53;;;;;;;2.50;1.33;;;23.10;67.10;;;;;;2486003;55;21012;-89
2023/07/05 04:51:19;;;;;;;2.87;1.35;;;23.10;66.20;;;;;;2489740;55;21008;-89
2023/07/05 04:53:46;;;;;;;2.87;1.12;;;23.10;66.90;;;;;;2487970;55;22305;-87
2023/07/05 04:56:13;;;;;;;3.33;1.23;;;23.10;67.10;;;;;;2489661;55;21478;-90
2023/07/05 04:58:40;;;;;;;2.90;1.25;;;23.10;67.10;;;;;;2262160;55;20933;-87
2023/07/05 05:01:08;;;;;;;2.67;1.10;;;23.10;67.10;;;;;;2263291;55;21006;-88
2023/07/05 05:03:37;;;;;;;3.97;1.58;;;23.20;67.20;;;;;;2489633;55;20992;-85
2023/07/05 05:06:03;;;;;;;3.15;1.10;;;23.20;67.10;;;;;;2489838;55;21032;-87
2023/07/05 05:08:30;;;;;;;3.47;1.52;;;23.20;67.20;;;;;;2489249;55;20972;-88
2023/07/05 05:11:01;;;;;;;2.83;1.20;;;23.20;67.20;;;;;;2496781;54;21435;-85
2023/07/05 05:13:29;;;;;;;4.20;1.15;;;23.20;67.10;;;;;;2507875;54;20965;-83
2023/07/05 05:15:56;;;;;;;2.40;1.12;;;23.30;67.20;;;;;;2469954;55;20990;-86
2023/07/05 05:18:22;;;;;;;2.95;1.30;;;23.30;67.30;;;;;;2482429;55;20970;-88
2023/07/05 05:20:49;;;;;;;2.58;0.95;;;23.30;67.20;;;;;;2483785;55;21455;-85
2023/07/05 05:23:16;;;;;;;2.53;1.00;;;23.20;67.00;;;;;;2484483;55;20922;-87
2023/07/05 05:25:42;;;;;;;2.58;1.15;;;23.40;67.30;;;;;;2484435;55;20954;-84
2023/07/05 05:28:09;;;;;;;2.17;0.90;;;23.40;67.20;;;;;;2483514;55;21058;-84
2023/07/05 05:30:35;;;;;;;2.58;1.20;;;23.40;67.20;;;;;;2481605;55;21899;-83
2023/07/05 05:33:03;;;;;;;2.47;1.00;;;23.40;67.10;;;;;;2484687;55;20986;-88
2023/07/05 05:35:30;;;;;;;2.75;0.90;;;23.30;67.00;;;;;;2486412;55;20966;-86
2023/07/05 05:37:56;;;;;;;2.45;0.95;;;23.40;67.20;;;;;;2260361;55;20949;-88
2023/07/05 05:40:23;;;;;;;3.05;0.90;;;23.30;67.00;;;;;;2484830;55;20954;-87
2023/07/05 05:42:49;;;;;;;3.25;1.00;;;23.30;66.70;;;;;;2259305;55;22615;-90
2023/07/05 05:45:16;;;;;;;2.15;0.90;;;23.20;66.30;;;;;;2484253;55;21607;-86
2023/07/05 05:47:42;;;;;;;2.95;0.95;;;23.20;66.10;;;;;;2489597;55;21481;-86
2023/07/05 05:50:09;;;;;;;2.22;0.80;;;23.10;65.90;;;;;;2494034;54;21921;-87
2023/07/05 05:52:36;;;;;;;1.87;0.77;;;23.00;65.90;;;;;;2483377;55;21533;-84
2023/07/05 05:55:03;;;;;;;5.62;1.17;;;22.90;66.00;;;;;;2483506;55;21033;-89
2023/07/05 05:57:29;;;;;;;2.10;0.77;;;22.80;66.10;;;;;;2260422;55;21113;-90
2023/07/05 05:59:55;;;;;;;2.53;0.75;;;22.70;66.10;;;;;;2485073;54;20994;-89
2023/07/05 06:02:22;;;;;;;2.53;0.80;;;22.70;66.40;;;;;;2490506;54;20983;-90
2023/07/05 06:04:48;;;;;;;2.62;0.77;;;22.60;66.70;;;;;;2506757;54;21030;-88
2023/07/05 06:07:14;;;;;;;1.55;0.60;;;22.50;66.90;;;;;;2485854;54;22154;-89
2023/07/05 06:09:46;;;;;;;1.75;0.77;;;22.40;67.20;;;;;;2484833;54;21017;-87
2023/07/05 06:12:13;;;;;;;2.15;0.60;;;22.40;67.50;;;;;;2487464;54;21987;-84
2023/07/05 06:14:39;;;;;;;1.55;0.57;;;22.30;67.80;;;;;;2486777;54;20930;-87
2023/07/05 06:17:06;;;;;;;2.00;0.90;;;22.20;68.00;;;;;;2486147;54;21030;-88
2023/07/05 06:19:32;;;;;;;2.22;0.70;;;22.20;68.30;;;;;;2487519;54;20989;-90
2023/07/05 06:21:59;;;;;;;2.20;0.55;;;22.10;68.40;;;;;;2486603;54;20963;-87
2023/07/05 06:24:26;;;;;;;1.85;0.65;;;22.10;68.70;;;;;;2261514;55;20944;-89
2023/07/05 06:26:52;;;;;;;1.80;0.60;;;22.00;68.90;;;;;;2482133;54;20886;-89
2023/07/05 06:29:18;;;;;;;1.60;0.60;;;22.00;69.20;;;;;;2496687;55;20959;-90
2023/07/05 06:31:45;;;;;;;1.37;0.52;;;22.00;69.40;;;;;;2264074;55;21757;-90
2023/07/05 06:34:11;;;;;;;1.23;0.50;;;22.00;69.70;;;;;;2481811;54;20988;-88
2023/07/05 06:36:38;;;;;;;1.48;0.70;;;21.90;69.80;;;;;;2482739;55;21000;-88
2023/07/05 06:39:05;;;;;;;1.20;0.50;;;21.90;70.10;;;;;;2483438;55;20969;-88
2023/07/05 06:41:32;;;;;;;1.85;0.60;;;21.90;70.30;;;;;;2483630;55;21230;-84
2023/07/05 06:43:58;;;;;;;1.80;0.57;;;21.90;70.50;;;;;;2485949;55;21153;-89
2023/07/05 06:46:24;;;;;;;1.77;0.70;;;21.90;70.80;;;;;;2493480;55;20930;-88
2023/07/05 06:48:51;;;;;;;2.05;0.75;;;21.90;70.90;;;;;;2338535;54;20973;-88
2023/07/05 06:51:17;;;;;;;1.58;0.60;;;21.90;71.00;;;;;;2481335;54;20970;-89
2023/07/05 06:53:43;;;;;;;1.55;0.50;;;21.90;71.20;;;;;;2487063;54;20922;-88
2023/07/05 06:56:14;;;;;;;2.08;0.73;;;21.90;71.40;;;;;;2504059;53;21203;-87
2023/07/05 06:58:40;;;;;;;2.55;0.85;;;21.90;71.40;;;;;;2514484;54;20938;-88
2023/07/05 07:01:07;;;;;;;1.37;0.60;;;21.90;71.30;;;;;;2513467;53;20922;-90
2023/07/05 07:03:34;;;;;;;2.00;0.70;;;22.00;72.00;;;;;;2504288;53;20984;-86
2023/07/05 07:06:00;;;;;;;2.87;0.80;;;21.90;71.20;;;;;;2506682;53;20962;-88
2023/07/05 07:08:31;;;;;;;1.27;0.60;;;21.90;71.20;;;;;;2543318;54;21194;-89
2023/07/05 07:11:01;;;;;;;2.40;0.77;;;21.90;70.90;;;;;;2539269;53;21977;-87
2023/07/05 07:13:28;;;;;;;2.65;1.00;;;21.90;71.50;;;;;;2301782;55;21944;-89
2023/07/05 07:16:11;;;;;;;2.22;1.00;;;21.90;70.80;;;;;;2552120;53;21010;-90
2023/07/05 07:18:38;;;;;;;2.10;0.90;;;21.90;70.50;;;;;;2552087;53;22214;-88
2023/07/05 07:21:05;;;;;;;3.40;1.15;;;21.80;70.70;;;;;;2544303;53;20957;-86
2023/07/05 07:23:32;;;;;;;2.20;1.05;;;21.80;70.70;;;;;;2548396;54;21278;-87
2023/07/05 07:26:04;;;;;;;3.08;1.20;;;21.80;70.70;;;;;;2529023;53;21046;-92
2023/07/05 07:28:30;;;;;;;;;;;21.80;70.30;;;;;;2539023;54;21974;-89
2023/07/05 07:30:57;;;;;;;2.35;1.10;;;21.80;69.30;;;;;;2538561;53;20058;-89
2023/07/05 07:33:24;;;;;;;2.28;1.00;;;21.80;70.60;;;;;;2533897;53;20978;-89
2023/07/05 07:35:50;;;;;;;2.50;1.12;;;21.70;70.40;;;;;;2548421;54;21223;-89
2023/07/05 07:38:16;;;;;;;2.75;1.20;;;21.70;70.40;;;;;;2524162;52;21136;-88
2023/07/05 07:40:43;;;;;;;2.33;0.90;;;21.70;70.60;;;;;;2591738;52;20981;-89
2023/07/05 07:43:09;;;;;;;3.47;1.62;;;21.70;70.90;;;;;;2325334;53;20994;-90
2023/07/05 07:45:36;;;;;;;7.85;4.50;;;21.50;70.70;;;;;;2327931;53;21129;-92
2023/07/05 07:48:02;;;;;;;4.45;2.78;;;21.60;70.90;;;;;;2306644;54;20947;-88
2023/07/05 07:50:29;;;;;;;7.60;4.57;;;21.60;71.00;;;;;;2563745;52;21346;-89
2023/07/05 07:52:55;;;;;;;4.35;2.70;;;21.70;71.00;;;;;;2562534;53;22170;-89
2023/07/05 07:55:21;;;;;;;4.43;2.42;;;21.60;70.90;;;;;;2563458;52;20956;-86
2023/07/05 07:57:48;;;;;;;3.70;2.03;;;21.60;71.30;;;;;;2562703;53;20981;-85
2023/07/05 08:00:15;;;;;;;3.35;1.60;;;21.60;70.90;;;;;;2555594;53;21062;-88
2023/07/05 08:02:41;;;;;;;3.83;2.05;;;21.60;70.80;;;;;;2544178;53;20965;-86
2023/07/05 08:05:16;;;;;;;3.67;2.12;;;21.60;70.70;;;;;;2548928;53;20973;-89
2023/07/05 08:07:42;;;;;;;3.78;2.12;;;21.60;70.10;;;;;;2547269;53;21004;-91
2023/07/05 08:10:09;;;;;;;3.53;1.73;;;21.60;70.50;;;;;;2563332;53;20949;-91
2023/07/05 08:12:36;;;;;;;4.43;1.80;;;21.60;70.40;;;;;;2561835;53;21032;-87
2023/07/05 08:15:02;;;;;;;4.87;2.03;;;21.60;70.10;;;;;;2563273;53;20918;-87
2023/07/05 08:17:29;;;;;;;3.33;1.70;;;21.60;70.10;;;;;;2562427;52;20954;-87
2023/07/05 08:19:55;;;;;;;3.35;1.70;;;21.60;70.10;;;;;;2560621;53;20970;-90
2023/07/05 08:22:22;;;;;;;3.80;1.92;;;21.60;70.00;;;;;;2321639;53;20977;-89
2023/07/05 08:24:49;;;;;;;3.47;1.80;;;21.60;70.10;;;;;;2561916;53;20942;-87
2023/07/05 08:27:18;;;;;;;4.00;2.03;;;21.60;70.20;;;;;;2555055;53;21061;-88
2023/07/05 08:29:44;;;;;;;4.07;1.90;;;21.60;70.20;;;;;;2561707;53;20997;-87
2023/07/05 08:32:11;;;;;;;3.78;2.10;;;21.70;70.40;;;;;;2561767;53;20962;-89
2023/07/05 08:34:37;;;;;;;4.00;2.22;;;21.60;70.40;;;;;;2560740;53;20974;-86
2023/07/05 08:37:04;;;;;;;3.53;1.92;;;21.70;71.30;;;;;;2558747;53;21884;-89
2023/07/05 08:39:31;;;;;;;3.28;1.80;;;21.70;70.30;;;;;;2321999;53;20969;-89
2023/07/05 08:42:24;;;;;;;3.72;1.87;;;21.70;70.30;;;;;;2322618;53;20925;-88
2023/07/05 08:45:31;;;;;;;3.62;1.80;;;21.70;69.40;;;;;;2559930;53;20981;-87
2023/07/05 08:48:00;;;;;;;3.70;1.87;;;21.70;70.10;;;;;;2558476;53;20957;-88
2023/07/05 08:50:31;;;;;;;3.25;1.85;;;21.70;70.70;;;;;;2321004;53;20945;-89
2023/07/05 08:53:05;;;;;;;4.75;2.25;;;21.80;70.50;;;;;;2558651;53;21056;-89
2023/07/05 08:55:44;;;;;;;3.83;2.00;;;21.80;70.70;;;;;;2320410;53;21445;-87
2023/07/05 08:58:11;;;;;;;3.65;1.83;;;21.80;70.00;;;;;;2322322;53;21569;-87
2023/07/05 09:00:48;;;;;;;3.85;2.25;;;22.00;71.00;;;;;;2560591;53;21005;-86
2023/07/05 09:03:15;;;;;;;3.78;1.90;;;21.90;70.30;;;;;;2537699;54;20974;-86
2023/07/05 09:05:52;;;;;;;3.87;2.03;;;22.10;70.90;;;;;;2555492;53;21506;-84
2023/07/05 09:10:05;;;;;;;4.60;2.12;;;22.00;69.60;;;;;;2322440;53;20894;-86
2023/07/05 09:12:39;;;;;;;3.45;1.90;;;22.10;69.20;;;;;;2561111;53;20934;-86
2023/07/05 09:15:25;;;;;;;4.00;2.12;;;22.20;69.80;;;;;;2540416;53;20986;-84
2023/07/05 09:18:33;;;;;;;3.58;1.80;;;22.20;68.50;;;;;;2554374;53;21359;-85
2023/07/05 09:21:14;;;;;;;3.72;2.05;;;22.20;68.40;;;;;;2556905;53;20969;-82
2023/07/05 09:23:46;;;;;;;3.60;1.95;;;22.30;69.50;;;;;;2557779;53;20969;-86
2023/07/05 09:26:19;;;;;;;5.25;1.80;;;22.30;69.90;;;;;;2558613;53;20985;-83
2023/07/05 09:28:49;;;;;;;4.35;2.30;;;22.30;69.30;;;;;;2320516;53;20957;-86
2023/07/05 09:31:16;;;;;;;3.80;2.10;;;22.40;70.00;;;;;;2558570;53;21001;-85
2023/07/05 09:33:53;;;;;;;3.55;1.95;;;22.40;70.00;;;;;;2558599;53;21031;-84
2023/07/05 09:36:22;;;;;;;3.50;1.95;;;22.50;68.30;;;;;;2558923;53;21080;-87
2023/07/05 09:38:52;;;;;;;3.50;1.98;;;22.50;69.10;;;;;;2559362;53;21867;-85
2023/07/05 09:48:08;;;;;;;3.55;2.03;;;22.60;69.00;;;;;;2551005;53;21033;-88
2023/07/05 09:50:35;;;;;;;3.25;1.55;;;22.80;68.40;;;;;;2559854;53;21439;-85
2023/07/05 09:53:12;;;;;;;3.53;2.00;;;22.80;70.20;;;;;;2558909;53;21047;-87
2023/07/05 09:56:01;;;;;;;4.18;2.10;;;22.80;69.10;;;;;;2557719;53;21000;-84
2023/07/05 09:58:27;;;;;;;3.42;1.87;;;22.80;66.40;;;;;;2560090;53;20981;-85
2023/07/05 10:00:54;;;;;;;3.30;1.62;;;22.80;68.70;;;;;;2559056;53;21029;-83
2023/07/05 10:03:21;;;;;;;3.78;1.70;;;22.90;68.90;;;;;;2559735;53;21055;-86
2023/07/05 10:05:51;;;;;;;3.42;1.90;;;22.90;68.90;;;;;;2552374;53;21546;-84
2023/07/05 10:08:18;;;;;;;5.03;1.85;;;23.00;68.90;;;;;;2541111;53;20973;-85
2023/07/05 10:10:45;;;;;;;3.20;1.70;;;23.00;69.10;;;;;;2559315;53;20954;-85
2023/07/05 10:13:17;;;;;;;3.35;1.45;;;23.00;68.70;;;;;;2560445;53;21057;-90
2023/07/05 10:15:47;;;;;;;3.70;1.90;;;23.10;68.30;;;;;;2562259;53;20978;-82
2023/07/05 10:18:27;;;;;;;3.42;1.60;;;23.10;67.90;;;;;;2323867;53;20946;-88
2023/07/05 10:20:56;;;;;;;3.58;1.70;;;23.20;66.20;;;;;;2560954;53;20985;-87
2023/07/05 10:23:23;;;;;;;3.70;1.98;;;23.20;67.20;;;;;;2538343;53;21237;-85
2023/07/05 10:25:49;;;;;;;2.97;1.55;;;23.30;67.30;;;;;;2321938;53;20993;-87
2023/07/05 10:28:19;;;;;;;3.50;1.90;;;23.30;67.50;;;;;;2561060;53;21016;-86
2023/07/05 10:30:52;;;;;;;3.00;1.40;;;23.40;67.10;;;;;;2561314;53;21865;-86
2023/07/05 10:33:30;;;;;;;3.65;1.90;;;23.40;66.00;;;;;;2559656;53;21032;-85
2023/07/05 10:36:57;;;;;;;3.28;1.62;;;23.40;66.10;;;;;;2558860;53;21747;-86
2023/07/05 10:39:25;;;;;;;3.85;1.95;;;23.50;65.20;;;;;;2557678;53;21875;-87
2023/07/05 10:41:55;;;;;;;3.20;1.67;;;23.50;67.00;;;;;;2317926;53;20957;-87
2023/07/05 10:44:31;;;;;;;2.77;1.43;;;23.60;66.70;;;;;;2557351;53;21506;-85
2023/07/05 10:46:59;;;;;;;2.60;1.37;;;23.60;65.70;;;;;;2557993;53;21031;-85
2023/07/05 10:49:27;;;;;;;2.60;1.42;;;23.60;66.60;;;;;;2545658;53;21011;-87
2023/07/05 10:51:56;;;;;;;2.85;1.40;;;23.70;66.40;;;;;;2552097;53;21502;-88
2023/07/05 10:55:13;;;;;;;3.50;1.55;;;23.70;65.90;;;;;;2560560;53;20994;-86
2023/07/05 10:57:44;;;;;;;2.65;1.30;;;23.80;63.60;;;;;;2561157;53;21029;-91
2023/07/05 11:02:49;;;;;;;3.22;1.37;;;23.90;65.90;;;;;;2303716;55;21595;-89
2023/07/05 11:05:24;;;;;;;3.47;1.45;;;23.90;64.90;;;;;;2558253;52;20995;-84
2023/07/05 11:09:34;;;;;;;3.67;1.70;;;24.00;67.70;;;;;;2532059;52;21836;-86
2023/07/05 11:13:14;;;;;;;3.30;1.52;;;24.10;65.60;;;;;;2325216;53;135252;-73
2023/07/05 11:15:40;;;;;;;3.20;1.30;;;24.10;64.20;;;;;;2551632;53;21083;-72
2023/07/05 11:25:26;;;;;;;;;;;24.20;66.70;;;;;;2481199;52;139171;-90
2023/07/05 11:28:58;;;;;;;;;;;;;;;;;;;;;
2023/07/05 11:38:59;;;;;;;3.13;1.20;;;24.50;65.70;;;;;;2447945;53;21097;-89
2023/07/05 11:41:31;;;;;;;4.60;1.20;;;24.60;65.20;;;;;;2486278;54;20980;-90
2023/07/05 11:44:04;;;;;;;2.55;1.27;;;24.60;64.00;;;;;;2482883;53;22443;-87
2023/07/05 11:49:37;;;;;;;2.60;1.23;;;24.60;65.00;;;;;;2515825;52;20976;-87
2023/07/05 11:52:24;;;;;;;2.40;1.12;;;24.60;62.20;;;;;;2575570;52;20937;-89
2023/07/05 12:05:19;;;;;;;2.83;1.40;;;24.60;64.80;;;;;;2555949;52;20941;-90
2023/07/05 12:07:58;;;;;;;2.40;0.90;;;24.70;62.00;;;;;;2591488;52;22051;-86
2023/07/05 12:13:18;;;;;;;2.75;0.98;;;24.90;62.00;;;;;;2293070;54;21062;-71
2023/07/05 12:15:48;;;;;;;2.12;0.90;;;25.00;64.60;;;;;;2532569;54;21012;-67
2023/07/05 12:18:14;;;;;;;2.40;1.10;;;25.00;65.40;;;;;;2291473;55;21336;-68
2023/07/05 12:20:45;;;;;;;4.37;1.17;;;25.00;65.30;;;;;;2292224;55;21044;-69
2023/07/05 12:23:13;;;;;;;2.60;1.15;;;25.00;64.70;;;;;;2292697;55;20948;-66
2023/07/05 12:25:50;;;;;;;2.95;1.17;;;25.10;65.20;;;;;;2527671;54;20961;-69
2023/07/05 12:28:21;;;;;;;3.45;1.42;;;25.10;63.80;;;;;;2527772;54;21016;-68
2023/07/05 12:30:47;;;;;;;2.70;1.33;;;25.20;65.00;;;;;;2291974;56;20988;-68
2023/07/05 12:33:24;;;;;;;2.55;1.17;;;25.20;64.70;;;;;;2528266;54;21355;-67
2023/07/05 12:36:13;;;;;;;2.60;1.20;;;25.20;62.70;;;;;;2292398;55;20952;-67
2023/07/05 12:38:41;;;;;;;2.42;1.20;;;25.30;62.10;;;;;;2527600;54;21420;-68
2023/07/05 12:41:30;;;;;;;2.40;1.10;;;25.30;65.00;;;;;;2527145;54;20956;-67
2023/07/05 12:44:04;;;;;;;3.65;1.30;;;25.40;61.70;;;;;;2527791;54;21887;-68
2023/07/05 12:46:33;;;;;;;2.20;1.05;;;25.50;63.20;;;;;;2528655;54;21063;-68
2023/07/05 12:49:12;;;;;;;3.33;1.30;;;25.50;64.40;;;;;;2292408;55;20956;-68
2023/07/05 12:51:54;;;;;;;2.00;1.00;;;25.60;62.40;;;;;;2293028;55;20956;-67
2023/07/05 12:54:22;;;;;;;3.72;1.30;;;25.60;62.60;;;;;;2528687;54;20971;-67
2023/07/05 12:56:49;;;;;;;2.30;0.90;;;25.70;64.70;;;;;;2292301;55;21019;-67
2023/07/05 12:59:32;;;;;;;2.55;1.02;;;25.70;64.10;;;;;;2496799;55;20965;-68
2023/07/05 13:02:03;;;;;;;2.72;1.33;;;25.80;61.70;;;;;;2283499;55;20967;-68
2023/07/05 13:04:30;;;;;;;2.40;1.10;;;25.80;63.50;;;;;;2501594;54;22124;-68
2023/07/05 13:07:00;;;;;;;3.12;1.20;;;25.90;63.30;;;;;;2292295;55;20880;-67
2023/07/05 13:09:28;;;;;;;2.60;1.10;;;25.90;63.10;;;;;;2292596;55;20924;-69
2023/07/05 13:12:03;;;;;;;2.50;1.12;;;26.00;62.80;;;;;;2292077;55;22065;-68
2023/07/05 13:14:32;;;;;;;2.72;1.00;;;26.00;61.80;;;;;;2527529;54;20951;-68
2023/07/05 13:17:24;;;;;;;2.70;1.20;;;26.10;62.30;;;;;;2291748;55;20928;-68
2023/07/05 13:20:19;;;;;;;2.50;1.00;;;26.20;60.30;;;;;;2289928;55;21459;-68
2023/07/05 13:23:05;;;;;;;2.20;0.93;;;26.20;59.50;;;;;;2280900;55;21040;-67
2023/07/05 13:25:46;;;;;;;2.35;0.90;;;26.30;60.30;;;;;;2500171;54;20993;-68
2023/07/05 13:28:22;;;;;;;2.00;1.00;;;26.30;60.40;;;;;;2506769;54;20924;-68
2023/07/05 13:30:59;;;;;;;2.60;1.00;;;26.40;61.20;;;;;;2527660;54;20928;-67
2023/07/05 13:33:26;;;;;;;2.33;0.90;;;26.40;60.00;;;;;;2527795;54;21451;-68
2023/07/05 13:35:52;;;;;;;2.22;0.98;;;26.40;61.60;;;;;;2526235;54;20865;-68
2023/07/05 13:38:19;;;;;;;3.03;1.10;;;26.50;61.80;;;;;;2292561;55;21265;-69
2023/07/05 13:40:54;;;;;;;2.33;1.00;;;26.50;61.50;;;;;;2527665;54;21108;-68
2023/07/05 13:43:21;;;;;;;2.40;1.20;;;26.60;60.40;;;;;;2527584;54;20928;-68
2023/07/05 13:45:48;;;;;;;3.47;1.30;;;26.60;61.10;;;;;;2527019;54;20969;-67
2023/07/05 13:48:15;;;;;;;3.17;0.93;;;26.70;60.40;;;;;;2527786;54;21417;-67
2023/07/05 13:50:41;;;;;;;2.30;1.00;;;26.70;60.80;;;;;;2517110;54;21465;-68
2023/07/05 13:53:31;;;;;;;1.85;0.80;;;26.70;61.30;;;;;;2278441;55;20940;-67
2023/07/05 13:55:58;;;;;;;2.50;1.20;;;26.80;59.70;;;;;;2526560;54;21504;-68
2023/07/05 13:58:25;;;;;;;2.83;0.90;;;26.80;61.20;;;;;;2519842;54;21001;-68
2023/07/05 14:00:53;;;;;;;2.60;1.17;;;26.90;60.40;;;;;;2507557;54;20917;-67
2023/07/05 14:03:19;;;;;;;3.05;1.00;;;26.90;60.30;;;;;;2292958;55;20904;-67
2023/07/05 14:05:48;;;;;;;2.30;1.10;;;26.90;60.70;;;;;;2527758;54;20956;-68
2023/07/05 14:08:15;;;;;;;3.05;1.20;;;27.00;60.50;;;;;;2521899;54;20964;-67
2023/07/05 14:10:45;;;;;;;2.40;1.23;;;27.00;60.00;;;;;;2292528;55;21676;-69